createdAt,value
2022-12-15T00:02:25.642Z,44.60
2022-12-15T00:05:11.186Z,42.92
2022-12-15T00:07:57.073Z,42.13
2022-12-15T00:10:43.402Z,43.92
2022-12-15T00:13:31.871Z,44.08
2022-12-15T00:16:18.489Z,42.38
2022-12-15T00:19:06.504Z,44.20
2022-12-15T00:21:52.179Z,42.47
2022-12-15T00:24:38.115Z,45.05
2022-12-15T00:27:24.567Z,44.03
2022-12-15T00:30:10.438Z,41.03
2022-12-15T00:32:57.712Z,43.72
2022-12-15T00:35:43.076Z,43.97
2022-12-15T00:38:32.761Z,42.30
2022-12-15T00:41:01.625Z,42.00
2022-12-15T00:43:34.441Z,42.58
2022-12-15T00:46:20.724Z,43.17
2022-12-15T00:48:48.375Z,43.42
2022-12-15T00:51:16.499Z,43.05
2022-12-15T00:54:02.761Z,44.47
2022-12-15T00:56:48.659Z,42.95
2022-12-15T00:59:35.517Z,42.35
2022-12-15T01:02:24.006Z,43.20
2022-12-15T01:05:09.389Z,43.17
2022-12-15T01:07:55.299Z,43.08
2022-12-15T01:10:41.230Z,41.45
2022-12-15T01:13:32.107Z,43.28
2022-12-15T01:16:18.209Z,41.58
2022-12-15T01:19:04.171Z,41.80
2022-12-15T01:21:32.435Z,41.75
2022-12-15T01:23:59.479Z,41.38
2022-12-15T01:26:26.520Z,40.90
2022-12-15T01:28:53.575Z,43.50
2022-12-15T01:31:20.690Z,40.17
2022-12-15T01:33:47.866Z,40.63
2022-12-15T01:36:15.031Z,41.72
2022-12-15T01:38:42.824Z,42.15
2022-12-15T01:41:15.298Z,41.28
2022-12-15T01:43:42.394Z,42.88
2022-12-15T01:46:18.230Z,42.22
2022-12-15T01:49:16.855Z,43.35
2022-12-15T01:51:49.988Z,43.85
2022-12-15T01:54:35.970Z,42.50
2022-12-15T01:57:14.076Z,41.40
2022-12-15T01:59:50.961Z,44.03
2022-12-15T02:02:22.797Z,42.30
2022-12-15T02:04:54.102Z,41.00
2022-12-15T02:07:24.643Z,41.92
2022-12-15T02:14:36.934Z,43.13
2022-12-15T02:17:47.460Z,40.95
2022-12-15T02:20:55.061Z,42.72
2022-12-15T02:23:58.972Z,41.13
2022-12-15T02:26:51.340Z,42.97
2022-12-15T02:30:12.347Z,43.97
2022-12-15T02:33:24.628Z,44.47
2022-12-15T02:36:06.629Z,41.88
2022-12-15T02:41:44.052Z,42.22
2022-12-15T02:44:23.487Z,42.13
2022-12-15T02:47:22.812Z,42.75
2022-12-15T02:50:11.758Z,41.58
2022-12-15T02:53:04.669Z,41.05
2022-12-15T02:55:51.524Z,42.95
2022-12-15T02:58:52.777Z,45.85
2022-12-15T03:01:29.197Z,44.03
2022-12-15T03:03:58.109Z,41.58
2022-12-15T03:06:26.965Z,40.47
2022-12-15T03:08:54.004Z,41.75
2022-12-15T03:11:23.564Z,43.30
2022-12-15T03:13:54.022Z,42.47
2022-12-15T03:16:21.726Z,41.03
2022-12-15T03:18:48.708Z,41.85
2022-12-15T03:21:15.705Z,41.45
2022-12-15T03:23:42.760Z,40.13
2022-12-15T03:26:09.767Z,39.35
2022-12-15T03:28:36.703Z,41.45
2022-12-15T03:31:04.154Z,40.03
2022-12-15T03:33:34.140Z,41.50
2022-12-15T03:36:01.530Z,41.65
2022-12-15T03:38:28.746Z,40.58
2022-12-15T03:40:55.712Z,41.35
2022-12-15T03:43:22.838Z,42.65
2022-12-15T03:45:49.944Z,42.97
2022-12-15T03:48:17.001Z,44.17
2022-12-15T03:50:44.549Z,43.28
2022-12-15T03:53:11.504Z,46.30
2022-12-15T03:55:38.448Z,45.08
2022-12-15T03:58:05.411Z,47.17
2022-12-15T04:00:33.151Z,46.22
2022-12-15T04:03:00.221Z,51.95
2022-12-15T04:05:31.247Z,48.33
2022-12-15T04:08:00.045Z,35.67
2022-12-15T04:10:34.512Z,51.97
2022-12-15T04:13:10.269Z,52.00
2022-12-15T04:15:39.923Z,51.60
2022-12-15T04:18:10.567Z,51.50
2022-12-15T04:20:40.214Z,54.50
2022-12-15T04:23:08.111Z,52.70
2022-12-15T04:25:54.886Z,50.47
2022-12-15T04:28:40.493Z,48.88
2022-12-15T04:31:33.901Z,51.83
2022-12-15T04:34:26.634Z,51.00
2022-12-15T04:37:13.084Z,54.25
2022-12-15T04:40:03.539Z,52.08
2022-12-15T04:42:51.272Z,52.30
2022-12-15T04:45:41.069Z,50.05
2022-12-15T04:48:26.474Z,56.20
2022-12-15T04:51:12.189Z,52.63
2022-12-15T04:53:58.123Z,54.67
2022-12-15T04:56:43.995Z,52.75
2022-12-15T04:59:29.224Z,52.72
2022-12-15T05:02:14.787Z,52.47
2022-12-15T05:05:00.631Z,61.25
2022-12-15T05:07:46.430Z,55.92
2022-12-15T05:10:31.813Z,56.17
2022-12-15T05:13:27.442Z,53.60
2022-12-15T05:16:12.854Z,55.53
2022-12-15T05:18:58.694Z,57.65
2022-12-15T05:21:44.550Z,60.47
2022-12-15T05:24:30.194Z,60.00
2022-12-15T05:27:15.504Z,62.72
2022-12-15T05:30:01.019Z,70.47
2022-12-15T05:32:27.873Z,67.93
2022-12-15T05:34:54.855Z,74.68
2022-12-15T05:37:21.760Z,74.10
2022-12-15T05:39:48.671Z,74.30
2022-12-15T05:42:15.662Z,71.22
2022-12-15T05:44:43.279Z,72.75
2022-12-15T05:47:11.916Z,72.22
2022-12-15T05:49:38.910Z,60.28
2022-12-15T05:52:06.661Z,61.70
2022-12-15T05:54:33.549Z,62.00
2022-12-15T05:57:00.449Z,61.78
2022-12-15T05:59:27.372Z,64.85
2022-12-15T06:01:54.603Z,57.65
2022-12-15T06:04:21.630Z,62.10
2022-12-15T06:06:50.032Z,55.33
2022-12-15T06:09:16.970Z,57.22
2022-12-15T06:11:44.874Z,51.60
2022-12-15T06:14:12.006Z,52.17
2022-12-15T06:16:49.827Z,60.38
2022-12-15T06:19:20.031Z,60.63
2022-12-15T06:21:47.100Z,59.28
2022-12-15T06:24:14.177Z,58.83
2022-12-15T06:26:41.614Z,52.67
2022-12-15T06:29:12.340Z,57.50
2022-12-15T06:31:41.380Z,59.20
2022-12-15T06:34:13.779Z,58.92
2022-12-15T06:36:41.461Z,51.47
2022-12-15T06:39:14.161Z,54.42
2022-12-15T06:41:42.104Z,58.75
2022-12-15T06:44:14.641Z,52.17
2022-12-15T06:46:41.926Z,52.30
2022-12-15T06:49:09.328Z,52.13
2022-12-15T06:51:36.644Z,54.90
2022-12-15T06:54:03.934Z,50.67
2022-12-15T06:56:37.607Z,47.50
2022-12-15T06:59:07.655Z,48.22
2022-12-15T07:01:35.293Z,48.97
2022-12-15T07:04:04.877Z,49.25
2022-12-15T07:06:37.445Z,51.83
2022-12-15T07:09:08.063Z,45.78
2022-12-15T07:11:35.484Z,48.50
2022-12-15T07:14:03.132Z,48.40
2022-12-15T07:16:31.074Z,51.47
2022-12-15T07:18:58.160Z,52.67
2022-12-15T07:21:25.049Z,50.97
2022-12-15T07:23:55.398Z,51.60
2022-12-15T07:26:24.025Z,56.57
2022-12-15T07:28:51.046Z,52.88
2022-12-15T07:31:18.199Z,52.95
2022-12-15T07:33:45.536Z,52.30
2022-12-15T07:36:13.230Z,58.17
2022-12-15T07:38:40.289Z,62.20
2022-12-15T07:41:09.409Z,55.03
2022-12-15T07:43:37.416Z,50.10
2022-12-15T07:46:06.179Z,54.63
2022-12-15T07:48:33.995Z,57.05
2022-12-15T07:51:17.074Z,50.15
2022-12-15T07:53:47.460Z,51.33
2022-12-15T07:56:15.409Z,49.90
2022-12-15T07:58:42.751Z,52.40
2022-12-15T08:01:13.701Z,48.70
2022-12-15T08:03:41.318Z,52.50
2022-12-15T08:06:11.979Z,52.00
2022-12-15T08:08:40.586Z,59.28
2022-12-15T08:11:14.343Z,54.38
2022-12-15T08:16:31.503Z,60.58
2022-12-15T08:18:58.571Z,63.05
2022-12-15T08:21:25.611Z,65.75
2022-12-15T08:23:52.701Z,61.35
2022-12-15T08:26:22.632Z,52.97
2022-12-15T08:28:54.010Z,55.45
2022-12-15T08:31:23.746Z,54.80
2022-12-15T08:33:51.180Z,54.42
2022-12-15T08:36:20.303Z,52.25
2022-12-15T08:38:47.803Z,51.58
2022-12-15T08:41:31.336Z,51.15
2022-12-15T08:44:00.335Z,54.28
2022-12-15T08:46:35.046Z,52.13
2022-12-15T08:49:03.693Z,53.42
2022-12-15T08:51:33.284Z,54.58
2022-12-15T08:54:01.302Z,54.25
2022-12-15T08:56:29.859Z,54.90
2022-12-15T08:59:02.136Z,54.83
2022-12-15T09:01:32.669Z,59.33
2022-12-15T09:04:01.410Z,62.33
2022-12-15T09:06:35.316Z,58.45
2022-12-15T09:09:07.327Z,60.13
2022-12-15T09:14:01.785Z,55.17
2022-12-15T09:16:29.300Z,52.00
2022-12-15T09:18:59.363Z,56.35
2022-12-15T09:21:29.916Z,57.65
2022-12-15T09:24:01.339Z,61.95
2022-12-15T09:26:34.040Z,51.67
2022-12-15T09:29:02.146Z,63.47
2022-12-15T09:31:33.005Z,60.28
2022-12-15T09:34:01.146Z,59.92
2022-12-15T09:36:30.404Z,56.50
2022-12-15T09:38:57.332Z,55.55
2022-12-15T09:41:33.179Z,60.47
2022-12-15T09:44:17.835Z,59.55
2022-12-15T09:47:00.998Z,60.42
2022-12-15T09:49:58.043Z,57.33
2022-12-15T09:52:54.730Z,66.68
2022-12-15T09:55:26.098Z,65.57
2022-12-15T09:58:15.849Z,65.00
2022-12-15T10:00:56.938Z,67.97
2022-12-15T10:03:59.132Z,66.28
2022-12-15T10:06:38.572Z,64.30
2022-12-15T10:09:23.332Z,62.72
2022-12-15T10:12:10.976Z,60.35
2022-12-15T10:14:49.926Z,63.72
2022-12-15T10:17:52.261Z,60.10
2022-12-15T10:20:26.270Z,63.10
2022-12-15T10:22:55.542Z,62.70
2022-12-15T10:25:32.159Z,65.10
2022-12-15T10:28:20.051Z,71.10
2022-12-15T10:31:09.617Z,66.32
2022-12-15T10:33:39.915Z,63.25
2022-12-15T10:36:13.947Z,68.75
2022-12-15T10:38:45.551Z,69.88
2022-12-15T10:41:27.819Z,68.32
2022-12-15T10:43:55.209Z,68.03
2022-12-15T10:46:27.546Z,67.82
2022-12-15T10:49:24.557Z,63.15
2022-12-15T10:51:58.138Z,64.68
2022-12-15T10:54:31.571Z,65.50
2022-12-15T10:57:03.020Z,67.10
2022-12-15T10:59:36.860Z,70.13
2022-12-15T11:02:25.794Z,65.90
2022-12-15T11:05:20.764Z,64.10
2022-12-15T11:08:16.255Z,65.43
2022-12-15T11:11:16.745Z,65.03
2022-12-15T11:14:07.297Z,68.15
2022-12-15T11:16:34.215Z,71.53
2022-12-15T11:19:49.188Z,71.20
2022-12-15T11:22:40.216Z,69.20
2022-12-15T11:25:26.584Z,70.78
2022-12-15T11:27:57.840Z,76.85
2022-12-15T11:30:33.732Z,79.22
2022-12-15T11:33:02.118Z,79.90
2022-12-15T11:36:02.530Z,77.38
2022-12-15T11:39:24.287Z,79.55
2022-12-15T11:41:59.268Z,74.13
2022-12-15T11:44:41.277Z,77.63
2022-12-15T11:47:17.294Z,90.15
2022-12-15T11:50:11.942Z,83.07
2022-12-15T11:53:06.715Z,84.75
2022-12-15T11:56:21.564Z,82.85
2022-12-15T11:59:12.177Z,77.78
2022-12-15T12:02:02.781Z,75.30
2022-12-15T12:04:56.800Z,76.25
2022-12-15T12:07:44.448Z,77.57
2022-12-15T12:10:27.524Z,74.95
2022-12-15T12:13:28.144Z,78.03
2022-12-15T12:16:26.195Z,76.85
2022-12-15T12:19:06.767Z,75.55
2022-12-15T12:21:50.970Z,73.88
2022-12-15T12:24:39.230Z,84.78
2022-12-15T12:28:03.729Z,77.30
2022-12-15T12:30:41.506Z,91.05
2022-12-15T12:33:16.125Z,85.00
2022-12-15T12:36:13.541Z,82.28
2022-12-15T12:38:56.067Z,78.53
2022-12-15T12:41:51.396Z,92.38
2022-12-15T12:44:30.902Z,94.25
2022-12-15T12:47:07.317Z,85.65
2022-12-15T12:49:43.999Z,90.38
